sensor_id;sensor_type;location;lat;lon;timestamp;pressure;altitude;pressure_sealevel;temperature;humidity
70976;BME280;58635;51.198;6.010;2023-05-21T00:00:41;101577.53;;;18.94;49.89
70976;BME280;58635;51.198;6.010;2023-05-21T00:03:07;101585.06;;;18.90;49.71
70976;BME280;58635;51.198;6.010;2023-05-21T00:05:38;101581.66;;;18.90;49.71
70976;BME280;58635;51.198;6.010;2023-05-21T00:08:05;101578.47;;;18.88;49.96
70976;BME280;58635;51.198;6.010;2023-05-21T00:10:30;101583.94;;;18.86;49.92
70976;BME280;58635;51.198;6.010;2023-05-21T00:12:56;101577.34;;;18.84;50.25
70976;BME280;58635;51.198;6.010;2023-05-21T00:15:21;101572.75;;;18.79;50.36
70976;BME280;58635;51.198;6.010;2023-05-21T00:17:47;101573.22;;;18.76;50.32
70976;BME280;58635;51.198;6.010;2023-05-21T00:20:12;101562.97;;;18.75;50.15
70976;BME280;58635;51.198;6.010;2023-05-21T00:22:37;101564.00;;;18.74;50.37
70976;BME280;58635;51.198;6.010;2023-05-21T00:25:04;101567.06;;;18.70;50.67
70976;BME280;58635;51.198;6.010;2023-05-21T00:27:30;101562.84;;;18.69;50.46
70976;BME280;58635;51.198;6.010;2023-05-21T00:29:56;101563.31;;;18.66;50.76
70976;BME280;58635;51.198;6.010;2023-05-21T00:32:21;101565.34;;;18.64;50.83
70976;BME280;58635;51.198;6.010;2023-05-21T00:34:47;101561.13;;;18.63;51.11
70976;BME280;58635;51.198;6.010;2023-05-21T00:37:12;101556.34;;;18.60;50.87
70976;BME280;58635;51.198;6.010;2023-05-21T00:39:39;101559.97;;;18.59;51.00
70976;BME280;58635;51.198;6.010;2023-05-21T00:42:05;101553.34;;;18.57;50.90
70976;BME280;58635;51.198;6.010;2023-05-21T00:44:30;101557.00;;;18.56;51.03
70976;BME280;58635;51.198;6.010;2023-05-21T00:47:02;101550.16;;;18.55;51.16
70976;BME280;58635;51.198;6.010;2023-05-21T00:49:29;101552.22;;;18.53;51.16
70976;BME280;58635;51.198;6.010;2023-05-21T00:51:55;101557.91;;;18.50;51.30
70976;BME280;58635;51.198;6.010;2023-05-21T00:54:22;101553.72;;;18.49;51.24
70976;BME280;58635;51.198;6.010;2023-05-21T00:56:48;101557.56;;;18.46;51.26
70976;BME280;58635;51.198;6.010;2023-05-21T00:59:15;101558.59;;;18.45;51.73
70976;BME280;58635;51.198;6.010;2023-05-21T01:01:42;101552.78;;;18.43;51.65
70976;BME280;58635;51.198;6.010;2023-05-21T01:04:10;101558.25;;;18.41;51.57
70976;BME280;58635;51.198;6.010;2023-05-21T01:06:36;101552.66;;;18.38;51.67
70976;BME280;58635;51.198;6.010;2023-05-21T01:09:02;101555.53;;;18.36;51.73
70976;BME280;58635;51.198;6.010;2023-05-21T01:11:49;101551.72;;;18.32;51.77
70976;BME280;58635;51.198;6.010;2023-05-21T01:14:16;101554.59;;;18.31;51.77
70976;BME280;58635;51.198;6.010;2023-05-21T01:16:44;101546.97;;;18.29;51.60
70976;BME280;58635;51.198;6.010;2023-05-21T01:19:14;101547.19;;;18.28;52.05
70976;BME280;58635;51.198;6.010;2023-05-21T01:21:43;101545.81;;;18.25;51.80
70976;BME280;58635;51.198;6.010;2023-05-21T01:24:09;101545.25;;;18.23;52.18
70976;BME280;58635;51.198;6.010;2023-05-21T01:26:34;101544.66;;;18.21;52.17
70976;BME280;58635;51.198;6.010;2023-05-21T01:29:06;101542.03;;;18.21;52.19
70976;BME280;58635;51.198;6.010;2023-05-21T01:32:04;101545.91;;;18.19;52.21
70976;BME280;58635;51.198;6.010;2023-05-21T01:34:46;101547.16;;;18.16;52.29
70976;BME280;58635;51.198;6.010;2023-05-21T01:37:20;101545.00;;;18.13;52.02
70976;BME280;58635;51.198;6.010;2023-05-21T01:39:51;101541.78;;;18.11;52.48
70976;BME280;58635;51.198;6.010;2023-05-21T01:42:20;101539.41;;;18.09;52.36
70976;BME280;58635;51.198;6.010;2023-05-21T01:44:50;101549.06;;;18.09;52.31
70976;BME280;58635;51.198;6.010;2023-05-21T01:47:16;101546.13;;;18.05;52.65
70976;BME280;58635;51.198;6.010;2023-05-21T01:49:42;101540.31;;;18.03;52.55
70976;BME280;58635;51.198;6.010;2023-05-21T01:52:08;101535.31;;;18.02;52.41
70976;BME280;58635;51.198;6.010;2023-05-21T01:54:34;101543.38;;;18.00;52.91
70976;BME280;58635;51.198;6.010;2023-05-21T01:56:59;101541.19;;;17.97;52.67
70976;BME280;58635;51.198;6.010;2023-05-21T01:59:25;101545.63;;;17.97;52.72
70976;BME280;58635;51.198;6.010;2023-05-21T02:01:51;101536.19;;;17.96;52.59
70976;BME280;58635;51.198;6.010;2023-05-21T02:04:17;101526.97;;;17.93;52.90
70976;BME280;58635;51.198;6.010;2023-05-21T02:06:42;101536.63;;;17.93;53.09
70976;BME280;58635;51.198;6.010;2023-05-21T02:09:08;101524.56;;;17.92;52.95
70976;BME280;58635;51.198;6.010;2023-05-21T02:11:34;101530.84;;;17.91;53.13
70976;BME280;58635;51.198;6.010;2023-05-21T02:13:59;101525.81;;;17.89;52.84
70976;BME280;58635;51.198;6.010;2023-05-21T02:16:24;101526.03;;;17.88;53.27
70976;BME280;58635;51.198;6.010;2023-05-21T02:18:50;101520.00;;;17.87;52.91
70976;BME280;58635;51.198;6.010;2023-05-21T02:21:17;101529.47;;;17.88;53.15
70976;BME280;58635;51.198;6.010;2023-05-21T02:23:44;101528.88;;;17.86;53.36
70976;BME280;58635;51.198;6.010;2023-05-21T02:26:10;101517.81;;;17.84;53.20
70976;BME280;58635;51.198;6.010;2023-05-21T02:28:35;101510.44;;;17.81;53.13
70976;BME280;58635;51.198;6.010;2023-05-21T02:31:00;101509.63;;;17.80;53.53
70976;BME280;58635;51.198;6.010;2023-05-21T02:33:26;101511.47;;;17.80;53.38
70976;BME280;58635;51.198;6.010;2023-05-21T02:35:51;101509.88;;;17.79;53.60
70976;BME280;58635;51.198;6.010;2023-05-21T02:38:17;101509.88;;;17.79;53.38
70976;BME280;58635;51.198;6.010;2023-05-21T02:40:44;101512.47;;;17.79;53.65
70976;BME280;58635;51.198;6.010;2023-05-21T02:43:10;101510.88;;;17.78;53.42
70976;BME280;58635;51.198;6.010;2023-05-21T02:45:35;101509.28;;;17.77;53.43
70976;BME280;58635;51.198;6.010;2023-05-21T02:48:00;101498.81;;;17.77;53.63
70976;BME280;58635;51.198;6.010;2023-05-21T02:50:26;101506.88;;;17.75;53.59
70976;BME280;58635;51.198;6.010;2023-05-21T02:52:51;101499.03;;;17.75;53.83
70976;BME280;58635;51.198;6.010;2023-05-21T02:55:17;101507.09;;;17.74;53.95
70976;BME280;58635;51.198;6.010;2023-05-21T02:57:42;101509.94;;;17.72;53.95
70976;BME280;58635;51.198;6.010;2023-05-21T03:00:08;101499.69;;;17.71;53.93
70976;BME280;58635;51.198;6.010;2023-05-21T03:02:34;101502.53;;;17.69;53.85
70976;BME280;58635;51.198;6.010;2023-05-21T03:04:59;101499.94;;;17.69;54.23
70976;BME280;58635;51.198;6.010;2023-05-21T03:07:25;101503.53;;;17.68;53.80
70976;BME280;58635;51.198;6.010;2023-05-21T03:09:50;101507.19;;;17.67;54.12
70976;BME280;58635;51.198;6.010;2023-05-21T03:12:16;101495.91;;;17.67;54.49
70976;BME280;58635;51.198;6.010;2023-05-21T03:14:41;101487.28;;;17.66;54.24
70976;BME280;58635;51.198;6.010;2023-05-21T03:17:08;101489.09;;;17.66;54.28
70976;BME280;58635;51.198;6.010;2023-05-21T03:19:40;101480.44;;;17.65;54.59
70976;BME280;58635;51.198;6.010;2023-05-21T03:22:06;101485.69;;;17.65;54.56
70976;BME280;58635;51.198;6.010;2023-05-21T03:24:31;101486.47;;;17.66;54.71
70976;BME280;58635;51.198;6.010;2023-05-21T03:26:58;101484.88;;;17.65;54.83
70976;BME280;58635;51.198;6.010;2023-05-21T03:29:25;101481.47;;;17.64;54.96
70976;BME280;58635;51.198;6.010;2023-05-21T03:31:53;101476.25;;;17.64;54.83
70976;BME280;58635;51.198;6.010;2023-05-21T03:34:18;101482.47;;;17.63;54.76
70976;BME280;58635;51.198;6.010;2023-05-21T03:36:45;101491.09;;;17.64;54.66
70976;BME280;58635;51.198;6.010;2023-05-21T03:39:10;101486.91;;;17.63;54.91
70976;BME280;58635;51.198;6.010;2023-05-21T03:41:36;101486.09;;;17.62;54.63
70976;BME280;58635;51.198;6.010;2023-05-21T03:44:01;101481.91;;;17.61;54.83
70976;BME280;58635;51.198;6.010;2023-05-21T03:46:27;101489.97;;;17.60;54.91
70976;BME280;58635;51.198;6.010;2023-05-21T03:48:52;101491.00;;;17.59;54.89
70976;BME280;58635;51.198;6.010;2023-05-21T03:51:18;101500.66;;;17.58;54.88
70976;BME280;58635;51.198;6.010;2023-05-21T03:53:44;101490.19;;;17.58;54.72
70976;BME280;58635;51.198;6.010;2023-05-21T03:56:10;101491.00;;;17.59;55.09
70976;BME280;58635;51.198;6.010;2023-05-21T03:58:35;101489.63;;;17.56;54.97
70976;BME280;58635;51.198;6.010;2023-05-21T04:01:01;101494.84;;;17.56;55.07
70976;BME280;58635;51.198;6.010;2023-05-21T04:03:28;101498.50;;;17.55;55.17
70976;BME280;58635;51.198;6.010;2023-05-21T04:05:54;101496.66;;;17.56;54.89
70976;BME280;58635;51.198;6.010;2023-05-21T04:08:20;101505.53;;;17.54;55.10
70976;BME280;58635;51.198;6.010;2023-05-21T04:10:46;101506.34;;;17.55;55.19
70976;BME280;58635;51.198;6.010;2023-05-21T04:13:11;101505.53;;;17.54;55.29
70976;BME280;58635;51.198;6.010;2023-05-21T04:15:36;101512.38;;;17.56;55.33
70976;BME280;58635;51.198;6.010;2023-05-21T04:18:02;101504.28;;;17.57;55.21
70976;BME280;58635;51.198;6.010;2023-05-21T04:20:28;101501.69;;;17.57;55.36
70976;BME280;58635;51.198;6.010;2023-05-21T04:22:54;101505.09;;;17.58;55.19
70976;BME280;58635;51.198;6.010;2023-05-21T04:25:19;101506.69;;;17.59;55.37
70976;BME280;58635;51.198;6.010;2023-05-21T04:27:47;101508.50;;;17.58;54.99
70976;BME280;58635;51.198;6.010;2023-05-21T04:30:14;101503.03;;;17.60;55.24
70976;BME280;58635;51.198;6.010;2023-05-21T04:32:39;101502.03;;;17.61;55.23
70976;BME280;58635;51.198;6.010;2023-05-21T04:35:05;101513.28;;;17.61;55.35
70976;BME280;58635;51.198;6.010;2023-05-21T04:37:30;101507.25;;;17.61;55.24
70976;BME280;58635;51.198;6.010;2023-05-21T04:39:59;101519.09;;;17.63;55.12
70976;BME280;58635;51.198;6.010;2023-05-21T04:42:25;101511.25;;;17.63;55.26
70976;BME280;58635;51.198;6.010;2023-05-21T04:44:51;101523.91;;;17.66;55.15
70976;BME280;58635;51.198;6.010;2023-05-21T04:47:16;101526.28;;;17.68;55.32
70976;BME280;58635;51.198;6.010;2023-05-21T04:49:45;101517.22;;;17.70;55.01
70976;BME280;58635;51.198;6.010;2023-05-21T04:52:14;101517.78;;;17.72;55.04
70976;BME280;58635;51.198;6.010;2023-05-21T04:54:41;101512.09;;;17.75;55.08
70976;BME280;58635;51.198;6.010;2023-05-21T04:57:06;101510.09;;;17.77;54.98
70976;BME280;58635;51.198;6.010;2023-05-21T04:59:32;101513.38;;;17.85;55.11
70976;BME280;58635;51.198;6.010;2023-05-21T05:01:58;101509.31;;;17.89;54.99
70976;BME280;58635;51.198;6.010;2023-05-21T05:04:23;101509.44;;;17.94;54.65
70976;BME280;58635;51.198;6.010;2023-05-21T05:06:48;101515.59;;;17.99;54.85
70976;BME280;58635;51.198;6.010;2023-05-21T05:09:14;101506.28;;;18.03;54.79
70976;BME280;58635;51.198;6.010;2023-05-21T05:11:40;101506.16;;;18.10;54.58
70976;BME280;58635;51.198;6.010;2023-05-21T05:14:05;101506.31;;;18.15;54.41
70976;BME280;58635;51.198;6.010;2023-05-21T05:16:31;101497.75;;;18.20;54.56
70976;BME280;58635;51.198;6.010;2023-05-21T05:18:58;101500.50;;;18.25;54.63
70976;BME280;58635;51.198;6.010;2023-05-21T05:21:23;101503.47;;;18.28;54.14
70976;BME280;58635;51.198;6.010;2023-05-21T05:23:49;101503.34;;;18.35;54.04
70976;BME280;58635;51.198;6.010;2023-05-21T05:26:14;101499.03;;;18.40;54.36
70976;BME280;58635;51.198;6.010;2023-05-21T05:28:40;101496.75;;;18.44;54.16
70976;BME280;58635;51.198;6.010;2023-05-21T05:31:05;101502.13;;;18.49;53.80
70976;BME280;58635;51.198;6.010;2023-05-21T05:33:31;101488.31;;;18.54;53.81
70976;BME280;58635;51.198;6.010;2023-05-21T05:35:56;101496.31;;;18.59;53.84
70976;BME280;58635;51.198;6.010;2023-05-21T05:38:21;101486.16;;;18.62;53.85
70976;BME280;58635;51.198;6.010;2023-05-21T05:40:47;101485.72;;;18.65;53.35
70976;BME280;58635;51.198;6.010;2023-05-21T05:43:12;101488.66;;;18.69;53.55
70976;BME280;58635;51.198;6.010;2023-05-21T05:45:38;101490.06;;;18.72;53.34
70976;BME280;58635;51.198;6.010;2023-05-21T05:48:03;101488.56;;;18.76;53.24
70976;BME280;58635;51.198;6.010;2023-05-21T05:50:29;101487.63;;;18.82;53.33
70976;BME280;58635;51.198;6.010;2023-05-21T05:52:54;101485.91;;;18.87;53.23
70976;BME280;58635;51.198;6.010;2023-05-21T05:55:19;101484.41;;;18.91;53.25
70976;BME280;58635;51.198;6.010;2023-05-21T05:57:46;101482.72;;;18.97;52.80
70976;BME280;58635;51.198;6.010;2023-05-21T06:00:12;101481.53;;;19.05;52.93
70976;BME280;58635;51.198;6.010;2023-05-21T06:02:38;101483.00;;;19.12;52.59
70976;BME280;58635;51.198;6.010;2023-05-21T06:05:04;101491.88;;;19.23;52.51
70976;BME280;58635;51.198;6.010;2023-05-21T06:07:31;101494.69;;;19.33;52.17
70976;BME280;58635;51.198;6.010;2023-05-21T06:09:57;101492.25;;;19.43;52.19
70976;BME280;58635;51.198;6.010;2023-05-21T06:12:22;101498.28;;;19.55;51.91
70976;BME280;58635;51.198;6.010;2023-05-21T06:14:47;101497.44;;;19.67;51.82
70976;BME280;58635;51.198;6.010;2023-05-21T06:17:13;101497.56;;;19.77;51.71
70976;BME280;58635;51.198;6.010;2023-05-21T06:19:39;101498.56;;;19.88;51.30
70976;BME280;58635;51.198;6.010;2023-05-21T06:22:04;101514.16;;;19.94;51.04
70976;BME280;58635;51.198;6.010;2023-05-21T06:24:29;101506.47;;;20.04;50.49
70976;BME280;58635;51.198;6.010;2023-05-21T06:26:55;101508.44;;;20.14;50.87
70976;BME280;58635;51.198;6.010;2023-05-21T06:29:20;101507.00;;;20.23;50.54
70976;BME280;58635;51.198;6.010;2023-05-21T06:31:46;101515.38;;;20.37;50.34
70976;BME280;58635;51.198;6.010;2023-05-21T06:34:11;101511.94;;;20.53;49.83
70976;BME280;58635;51.198;6.010;2023-05-21T06:36:36;101511.44;;;20.73;49.44
70976;BME280;58635;51.198;6.010;2023-05-21T06:39:02;101516.13;;;20.93;49.32
70976;BME280;58635;51.198;6.010;2023-05-21T06:41:27;101507.47;;;21.14;48.72
70976;BME280;58635;51.198;6.010;2023-05-21T06:43:53;101512.44;;;21.33;48.36
70976;BME280;58635;51.198;6.010;2023-05-21T06:46:18;101518.66;;;21.48;48.08
70976;BME280;58635;51.198;6.010;2023-05-21T06:48:44;101518.31;;;21.67;47.62
70976;BME280;58635;51.198;6.010;2023-05-21T06:51:10;101504.22;;;21.83;47.20
70976;BME280;58635;51.198;6.010;2023-05-21T06:53:36;101505.91;;;21.94;46.97
70976;BME280;58635;51.198;6.010;2023-05-21T06:56:01;101497.53;;;22.02;46.69
70976;BME280;58635;51.198;6.010;2023-05-21T06:58:27;101497.94;;;22.16;46.41
70976;BME280;58635;51.198;6.010;2023-05-21T07:00:58;101502.53;;;22.36;45.97
70976;BME280;58635;51.198;6.010;2023-05-21T07:03:24;101498.44;;;22.60;45.60
70976;BME280;58635;51.198;6.010;2023-05-21T07:05:49;101496.69;;;22.76;45.51
70976;BME280;58635;51.198;6.010;2023-05-21T07:08:15;101501.53;;;22.89;45.26
70976;BME280;58635;51.198;6.010;2023-05-21T07:10:40;101504.75;;;23.01;44.54
70976;BME280;58635;51.198;6.010;2023-05-21T07:13:06;101503.97;;;23.11;44.77
70976;BME280;58635;51.198;6.010;2023-05-21T07:15:32;101507.69;;;23.15;44.38
70976;BME280;58635;51.198;6.010;2023-05-21T07:17:57;101503.72;;;23.13;44.48
70976;BME280;58635;51.198;6.010;2023-05-21T07:20:23;101503.72;;;23.13;44.56
70976;BME280;58635;51.198;6.010;2023-05-21T07:22:48;101501.34;;;23.11;44.18
70976;BME280;58635;51.198;6.010;2023-05-21T07:25:13;101493.13;;;23.08;44.43
70976;BME280;58635;51.198;6.010;2023-05-21T07:27:40;101496.81;;;23.01;44.70
70976;BME280;58635;51.198;6.010;2023-05-21T07:30:07;101501.56;;;22.99;44.46
70976;BME280;58635;51.198;6.010;2023-05-21T07:32:33;101495.75;;;22.97;44.97
70976;BME280;58635;51.198;6.010;2023-05-21T07:34:59;101496.28;;;22.99;44.34
70976;BME280;58635;51.198;6.010;2023-05-21T07:37:26;101499.44;;;22.96;44.39
70976;BME280;58635;51.198;6.010;2023-05-21T07:39:52;101497.31;;;22.93;44.66
70976;BME280;58635;51.198;6.010;2023-05-21T07:42:18;101489.41;;;22.88;44.73
70976;BME280;58635;51.198;6.010;2023-05-21T07:44:43;101497.28;;;22.83;44.66
70976;BME280;58635;51.198;6.010;2023-05-21T07:47:09;101488.25;;;22.79;44.77
70976;BME280;58635;51.198;6.010;2023-05-21T07:49:34;101486.69;;;22.78;44.89
70976;BME280;58635;51.198;6.010;2023-05-21T07:51:59;101487.72;;;22.77;44.96
70976;BME280;58635;51.198;6.010;2023-05-21T07:54:25;101489.31;;;22.78;45.01
70976;BME280;58635;51.198;6.010;2023-05-21T07:56:50;101492.75;;;22.79;44.90
70976;BME280;58635;51.198;6.010;2023-05-21T07:59:16;101486.16;;;22.81;44.99
70976;BME280;58635;51.198;6.010;2023-05-21T08:01:41;101488.31;;;22.84;44.96
70976;BME280;58635;51.198;6.010;2023-05-21T08:04:07;101487.81;;;22.87;44.93
70976;BME280;58635;51.198;6.010;2023-05-21T08:06:33;101480.94;;;22.86;44.88
70976;BME280;58635;51.198;6.010;2023-05-21T08:09:02;101480.63;;;22.83;45.09
70976;BME280;58635;51.198;6.010;2023-05-21T08:11:28;101479.31;;;22.80;45.14
70976;BME280;58635;51.198;6.010;2023-05-21T08:13:54;101482.72;;;22.75;45.39
70976;BME280;58635;51.198;6.010;2023-05-21T08:16:19;101488.25;;;22.74;45.46
70976;BME280;58635;51.198;6.010;2023-05-21T08:18:45;101486.91;;;22.71;45.02
70976;BME280;58635;51.198;6.010;2023-05-21T08:21:10;101487.47;;;22.73;45.36
70976;BME280;58635;51.198;6.010;2023-05-21T08:23:36;101488.53;;;22.77;45.11
70976;BME280;58635;51.198;6.010;2023-05-21T08:26:01;101481.44;;;22.83;45.20
70976;BME280;58635;51.198;6.010;2023-05-21T08:28:27;101483.53;;;22.81;45.10
70976;BME280;58635;51.198;6.010;2023-05-21T08:30:53;101477.44;;;22.81;45.38
70976;BME280;58635;51.198;6.010;2023-05-21T08:33:18;101480.16;;;22.86;45.27
70976;BME280;58635;51.198;6.010;2023-05-21T08:35:44;101486.78;;;22.98;45.30
70976;BME280;58635;51.198;6.010;2023-05-21T08:38:10;101484.16;;;23.09;45.17
70976;BME280;58635;51.198;6.010;2023-05-21T08:40:35;101480.28;;;23.21;45.00
70976;BME280;58635;51.198;6.010;2023-05-21T08:43:01;101483.47;;;23.39;44.96
70976;BME280;58635;51.198;6.010;2023-05-21T08:45:27;101480.56;;;23.50;44.52
70976;BME280;58635;51.198;6.010;2023-05-21T08:48:01;101478.75;;;23.61;44.47
70976;BME280;58635;51.198;6.010;2023-05-21T08:50:28;101481.13;;;23.68;44.17
70976;BME280;58635;51.198;6.010;2023-05-21T08:52:53;101486.94;;;23.75;43.92
70976;BME280;58635;51.198;6.010;2023-05-21T08:55:23;101474.78;;;23.89;44.15
70976;BME280;58635;51.198;6.010;2023-05-21T08:57:49;101474.78;;;24.09;43.62
70976;BME280;58635;51.198;6.010;2023-05-21T09:00:15;101476.88;;;24.23;43.55
70976;BME280;58635;51.198;6.010;2023-05-21T09:02:41;101469.22;;;24.31;43.11
70976;BME280;58635;51.198;6.010;2023-05-21T09:05:08;101466.81;;;24.40;43.14
70976;BME280;58635;51.198;6.010;2023-05-21T09:07:56;101477.88;;;24.47;42.60
70976;BME280;58635;51.198;6.010;2023-05-21T09:10:28;101473.38;;;24.58;42.75
70976;BME280;58635;51.198;6.010;2023-05-21T09:12:58;101478.09;;;24.66;42.67
70976;BME280;58635;51.198;6.010;2023-05-21T09:15:24;101472.19;;;24.89;42.39
70976;BME280;58635;51.198;6.010;2023-05-21T09:17:49;101485.88;;;25.06;42.05
70976;BME280;58635;51.198;6.010;2023-05-21T09:20:15;101479.94;;;25.25;41.38
70976;BME280;58635;51.198;6.010;2023-05-21T09:22:43;101478.50;;;25.43;41.16
70976;BME280;58635;51.198;6.010;2023-05-21T09:25:15;101478.94;;;25.55;41.08
70976;BME280;58635;51.198;6.010;2023-05-21T09:27:40;101479.19;;;25.58;41.03
70976;BME280;58635;51.198;6.010;2023-05-21T09:30:16;101478.41;;;25.58;41.16
70976;BME280;58635;51.198;6.010;2023-05-21T09:32:44;101483.44;;;25.59;41.02
70976;BME280;58635;51.198;6.010;2023-05-21T09:35:12;101469.09;;;25.60;40.53
70976;BME280;58635;51.198;6.010;2023-05-21T09:37:41;101474.91;;;25.62;40.85
70976;BME280;58635;51.198;6.010;2023-05-21T09:40:18;101471.97;;;25.69;40.89
70976;BME280;58635;51.198;6.010;2023-05-21T09:42:48;101474.50;;;25.84;40.68
70976;BME280;58635;51.198;6.010;2023-05-21T09:45:27;101473.75;;;26.08;40.39
70976;BME280;58635;51.198;6.010;2023-05-21T09:47:54;101470.16;;;26.22;39.86
70976;BME280;58635;51.198;6.010;2023-05-21T09:52:46;101466.09;;;26.30;39.74
70976;BME280;58635;51.198;6.010;2023-05-21T09:55:13;101473.19;;;26.35;39.72
70976;BME280;58635;51.198;6.010;2023-05-21T09:57:46;101477.91;;;26.43;39.36
70976;BME280;58635;51.198;6.010;2023-05-21T10:00:26;101468.59;;;26.45;39.06
70976;BME280;58635;51.198;6.010;2023-05-21T10:02:56;101464.88;;;26.46;39.38
70976;BME280;58635;51.198;6.010;2023-05-21T10:05:27;101466.44;;;26.47;39.04
70976;BME280;58635;51.198;6.010;2023-05-21T10:07:58;101468.03;;;26.48;38.99
70976;BME280;58635;51.198;6.010;2023-05-21T10:10:27;101462.22;;;26.46;39.28
70976;BME280;58635;51.198;6.010;2023-05-21T10:13:06;101463.50;;;26.49;39.36
70976;BME280;58635;51.198;6.010;2023-05-21T10:15:54;101458.06;;;26.40;39.31
70976;BME280;58635;51.198;6.010;2023-05-21T10:18:22;101450.91;;;26.36;39.43
70976;BME280;58635;51.198;6.010;2023-05-21T10:20:48;101444.59;;;26.32;39.59
70976;BME280;58635;51.198;6.010;2023-05-21T10:23:13;101443.06;;;26.26;39.56
70976;BME280;58635;51.198;6.010;2023-05-21T10:25:40;101433.34;;;26.16;39.48
70976;BME280;58635;51.198;6.010;2023-05-21T10:28:06;101440.00;;;26.13;39.44
70976;BME280;58635;51.198;6.010;2023-05-21T10:30:31;101432.03;;;26.18;39.51
70976;BME280;58635;51.198;6.010;2023-05-21T10:32:57;101436.41;;;26.28;39.61
70976;BME280;58635;51.198;6.010;2023-05-21T10:35:23;101435.69;;;26.46;39.31
70976;BME280;58635;51.198;6.010;2023-05-21T10:37:50;101436.66;;;26.56;39.35
70976;BME280;58635;51.198;6.010;2023-05-21T10:40:17;101429.91;;;26.63;39.19
70976;BME280;58635;51.198;6.010;2023-05-21T10:43:12;101424.59;;;26.63;39.16
70976;BME280;58635;51.198;6.010;2023-05-21T11:01:11;101412.06;;;26.69;39.21
70976;BME280;58635;51.198;6.010;2023-05-21T11:03:36;101406.34;;;26.80;39.20
70976;BME280;58635;51.198;6.010;2023-05-21T11:06:02;101404.25;;;26.96;39.06
70976;BME280;58635;51.198;6.010;2023-05-21T11:08:30;101406.28;;;27.04;38.80
70976;BME280;58635;51.198;6.010;2023-05-21T11:10:59;101398.91;;;27.01;38.38
70976;BME280;58635;51.198;6.010;2023-05-21T11:13:26;101397.84;;;26.97;38.68
70976;BME280;58635;51.198;6.010;2023-05-21T11:21:13;101382.16;;;27.01;38.65
70976;BME280;58635;51.198;6.010;2023-05-21T11:24:04;101392.91;;;27.28;38.61
70976;BME280;58635;51.198;6.010;2023-05-21T11:29:31;101374.91;;;27.85;37.70
70976;BME280;58635;51.198;6.010;2023-05-21T11:32:00;101379.75;;;28.11;37.09
70976;BME280;58635;51.198;6.010;2023-05-21T11:34:35;101373.91;;;28.22;37.21
70976;BME280;58635;51.198;6.010;2023-05-21T11:39:43;101370.38;;;28.27;36.94
70976;BME280;58635;51.198;6.010;2023-05-21T11:42:08;101371.34;;;28.45;36.70
70976;BME280;58635;51.198;6.010;2023-05-21T11:44:44;101368.47;;;28.55;36.43
70976;BME280;58635;51.198;6.010;2023-05-21T11:47:15;101366.94;;;28.63;36.42
70976;BME280;58635;51.198;6.010;2023-05-21T11:49:41;101363.66;;;28.79;36.26
70976;BME280;58635;51.198;6.010;2023-05-21T11:52:08;101354.72;;;28.98;36.11
70976;BME280;58635;51.198;6.010;2023-05-21T11:54:42;101363.00;;;29.19;35.65
70976;BME280;58635;51.198;6.010;2023-05-21T11:57:10;101357.50;;;29.15;35.92
70976;BME280;58635;51.198;6.010;2023-05-21T11:59:36;101350.00;;;29.17;35.36
70976;BME280;58635;51.198;6.010;2023-05-21T12:02:02;101351.94;;;29.25;35.52
70976;BME280;58635;51.198;6.010;2023-05-21T12:04:29;101346.16;;;29.32;35.32
70976;BME280;58635;51.198;6.010;2023-05-21T12:06:55;101346.22;;;29.40;35.51
70976;BME280;58635;51.198;6.010;2023-05-21T12:09:23;101334.22;;;29.52;35.27
70976;BME280;58635;51.198;6.010;2023-05-21T12:11:48;101329.22;;;29.59;35.40
70976;BME280;58635;51.198;6.010;2023-05-21T12:14:16;101334.59;;;29.67;34.94
70976;BME280;58635;51.198;6.010;2023-05-21T12:16:42;101328.50;;;29.76;34.70
70976;BME280;58635;51.198;6.010;2023-05-21T12:19:08;101324.28;;;29.83;34.61
70976;BME280;58635;51.198;6.010;2023-05-21T12:21:34;101324.13;;;29.88;34.92
70976;BME280;58635;51.198;6.010;2023-05-21T12:24:00;101327.44;;;29.94;35.05
70976;BME280;58635;51.198;6.010;2023-05-21T12:26:26;101327.47;;;30.03;34.35
70976;BME280;58635;51.198;6.010;2023-05-21T12:28:56;101336.31;;;30.12;34.77
70976;BME280;58635;51.198;6.010;2023-05-21T12:31:22;101338.19;;;30.11;33.96
70976;BME280;58635;51.198;6.010;2023-05-21T12:33:50;101331.88;;;30.07;34.52
70976;BME280;58635;51.198;6.010;2023-05-21T12:36:28;101329.72;;;30.09;34.30
70976;BME280;58635;51.198;6.010;2023-05-21T12:38:54;101328.72;;;30.05;34.02
70976;BME280;58635;51.198;6.010;2023-05-21T12:41:21;101332.78;;;30.03;34.12
70976;BME280;58635;51.198;6.010;2023-05-21T12:43:47;101334.22;;;30.00;34.39
70976;BME280;58635;51.198;6.010;2023-05-21T12:46:12;101342.38;;;30.04;34.30
70976;BME280;58635;51.198;6.010;2023-05-21T12:48:48;101329.09;;;30.12;33.78
70976;BME280;58635;51.198;6.010;2023-05-21T12:51:16;101330.47;;;30.18;33.83
70976;BME280;58635;51.198;6.010;2023-05-21T12:53:42;101335.53;;;30.28;34.19
70976;BME280;58635;51.198;6.010;2023-05-21T12:56:11;101337.88;;;30.30;33.63
70976;BME280;58635;51.198;6.010;2023-05-21T12:58:36;101338.50;;;30.27;33.89
70976;BME280;58635;51.198;6.010;2023-05-21T13:01:09;101330.34;;;30.15;33.94
70976;BME280;58635;51.198;6.010;2023-05-21T13:03:36;101342.56;;;30.16;34.15
70976;BME280;58635;51.198;6.010;2023-05-21T13:06:04;101346.50;;;30.18;34.37
70976;BME280;58635;51.198;6.010;2023-05-21T13:08:30;101341.34;;;30.22;33.96
70976;BME280;58635;51.198;6.010;2023-05-21T13:10:55;101335.53;;;30.20;33.82
70976;BME280;58635;51.198;6.010;2023-05-21T13:13:21;101346.81;;;30.17;34.39
70976;BME280;58635;51.198;6.010;2023-05-21T13:15:46;101348.69;;;30.16;33.94
70976;BME280;58635;51.198;6.010;2023-05-21T13:18:11;101345.13;;;30.21;34.59